Wolverine, Michigan
Current Conditions -  °F | °C
As of 7:53 AM on Saturday 25 Oct 2014 (Local Time) from KGLR Reporting Station
Haze Haze  
Wind Chill: 52°   Ceiling: 1000
Heat Index: 52°   Visibility: 6mi
Dew Point: 49°   Wind: 18mph
Humidity: 89%   Direction: 260°W
Pressure: 29.71"   Gusts: 26mph
Location:  45.27°N, 84.6°W
Report Text: KGLR 251153Z AUTO 26016G23KT 6SM BR BKN010 OVC017 11/09 A2971 RMK AO2 CIG 008V014 SLP063 T01110094 10111 20072 56014
Loading
Personal Weather Stations






























Interactive Weather Map
Tropical Storm Tracking
New forecast layout! Learn more

10-Day Weather Forecast

Advertisements
Track Severe Weather on mobile